Time;durP1;ratioP1;P1;durP2;ratioP2;P2;SDS_P1;SDS_P2;PMS_P1;PMS_P2;Temp;Humidity;BMP_temperature;BMP_pressure;BME280_temperature;BME280_humidity;BME280_pressure;Samples;Min_cycle;Max_cycle;Signal;HPM_P1;HPM_P2
2023/02/22 00:00:21;;;;;;;23.92;13.15;;;;;;;9.02;100.00;100715.72;5003254;28;20034;-72
2023/02/22 00:02:51;;;;;;;25.02;13.77;;;;;;;8.96;100.00;100708.69;5003978;28;20049;-72
2023/02/22 00:05:23;;;;;;;23.08;14.05;;;;;;;8.98;100.00;100706.03;5001979;28;20053;-72
2023/02/22 00:07:49;;;;;;;26.58;15.45;;;;;;;8.98;100.00;100700.75;5000437;28;20504;-72
2023/02/22 00:10:19;;;;;;;22.65;13.82;;;;;;;9.00;100.00;100696.38;5002598;28;20034;-72
2023/02/22 00:12:46;;;;;;;22.27;13.82;;;;;;;8.99;100.00;100697.28;5000109;28;20034;-72
2023/02/22 00:15:13;;;;;;;24.73;13.20;;;;;;;9.02;100.00;100697.28;5003572;28;20044;-72
2023/02/22 00:17:38;;;;;;;20.52;12.85;;;;;;;8.94;100.00;100696.38;5002399;28;20033;-69
2023/02/22 00:20:05;;;;;;;26.95;13.73;;;;;;;8.88;100.00;100685.81;5001721;28;20040;-69
2023/02/22 00:22:31;;;;;;;35.65;18.15;;;;;;;8.95;100.00;100691.09;5002471;28;20042;-69
2023/02/22 00:24:57;;;;;;;21.13;12.45;;;;;;;9.06;100.00;100693.75;5000827;28;20088;-69
2023/02/22 00:27:22;;;;;;;20.55;11.57;;;;;;;9.17;100.00;100688.56;5008985;28;20500;-69
2023/02/22 00:29:48;;;;;;;14.63;8.88;;;;;;;9.27;100.00;100692.06;5003249;28;20040;-70
2023/02/22 00:32:14;;;;;;;10.55;6.05;;;;;;;9.36;100.00;100689.44;4983527;28;20046;-69
2023/02/22 00:34:39;;;;;;;10.25;5.43;;;;;;;9.43;100.00;100693.81;5008647;28;20034;-69
2023/02/22 00:37:05;;;;;;;7.28;4.13;;;;;;;9.47;100.00;100690.34;4983481;28;20065;-69
2023/02/22 00:39:30;;;;;;;8.88;4.00;;;;;;;9.50;100.00;100690.34;4999357;28;20030;-69
2023/02/22 00:41:55;;;;;;;7.22;3.90;;;;;;;9.54;100.00;100686.84;5003440;28;20485;-69
2023/02/22 00:44:21;;;;;;;5.55;2.65;;;;;;;9.56;100.00;100695.63;4983845;28;20037;-69
2023/02/22 00:46:48;;;;;;;6.82;2.83;;;;;;;9.58;100.00;100692.97;5000841;28;20058;-69
2023/02/22 00:49:16;;;;;;;5.07;2.60;;;;;;;9.63;100.00;100689.47;4983385;28;20037;-69
2023/02/22 00:51:42;;;;;;;5.32;2.50;;;;;;;9.62;100.00;100695.63;5015898;22;20104;-74
2023/02/22 00:54:07;;;;;;;4.95;2.55;;;;;;;9.60;100.00;100697.38;5021873;28;20083;-75
2023/02/22 00:56:33;;;;;;;5.50;2.22;;;;;;;9.54;100.00;100691.22;5001603;28;20033;-75
2023/02/22 00:59:02;;;;;;;6.25;2.30;;;;;;;9.50;100.00;100694.72;5022104;28;20033;-75
2023/02/22 01:01:28;;;;;;;5.40;2.50;;;;;;;9.54;100.00;100689.47;5001250;28;20041;-75
2023/02/22 01:03:53;;;;;;;4.65;2.40;;;;;;;9.55;100.00;100690.34;4999226;28;20034;-75
2023/02/22 01:06:19;;;;;;;5.28;2.08;;;;;;;9.57;100.00;100693.88;4984936;28;20030;-75
2023/02/22 01:08:46;;;;;;;4.10;1.83;;;;;;;9.60;100.00;100689.47;5001625;28;20121;-75
2023/02/22 01:11:14;;;;;;;5.22;2.40;;;;;;;9.62;100.00;100689.47;4999158;28;20025;-75
2023/02/22 01:13:40;;;;;;;5.38;2.30;;;;;;;9.62;100.00;100685.06;4990648;28;20034;-75
2023/02/22 01:16:09;;;;;;;5.50;2.10;;;;;;;9.63;100.00;100694.72;4999820;28;20485;-75
2023/02/22 01:18:35;;;;;;;5.50;2.38;;;;;;;9.64;100.00;100693.88;5008589;28;20038;-75
2023/02/22 01:21:01;;;;;;;6.20;2.60;;;;;;;9.60;100.00;100697.38;5000774;28;20034;-75
2023/02/22 01:23:26;;;;;;;5.95;2.13;;;;;;;9.59;100.00;100685.09;5001224;28;20049;-75
2023/02/22 01:25:52;;;;;;;6.32;2.55;;;;;;;9.58;100.00;100688.56;4982869;28;20113;-75
2023/02/22 01:28:18;;;;;;;4.47;2.17;;;;;;;9.61;100.00;100680.66;5011478;28;20038;-75
2023/02/22 01:30:43;;;;;;;4.55;2.38;;;;;;;9.63;100.00;100681.56;4983483;28;20045;-75
2023/02/22 01:33:09;;;;;;;6.63;2.78;;;;;;;9.65;100.00;100687.72;4990875;28;20033;-75
2023/02/22 01:35:37;;;;;;;6.68;2.38;;;;;;;9.62;100.00;100685.06;5000604;28;20049;-74
2023/02/22 01:38:03;;;;;;;5.93;2.63;;;;;;;9.57;100.00;100686.84;5008991;28;20077;-75
2023/02/22 01:40:31;;;;;;;5.35;1.90;;;;;;;9.58;100.00;100688.56;5000974;28;20034;-75
2023/02/22 01:42:58;;;;;;;6.78;2.03;;;;;;;9.58;100.00;100688.56;5003904;28;20128;-75
2023/02/22 01:45:33;;;;;;;4.68;1.67;;;;;;;9.58;100.00;100683.31;5002053;28;20042;-75
2023/02/22 01:48:26;;;;;;;4.82;1.60;;;;;;;9.56;100.00;100678.91;5003544;28;20054;-75
2023/02/22 01:50:59;;;;;;;4.18;1.55;;;;;;;9.54;100.00;100681.56;5003298;28;20113;-75
2023/02/22 01:53:38;;;;;;;6.03;2.13;;;;;;;9.53;100.00;100685.06;5004120;28;20057;-75
2023/02/22 01:56:04;;;;;;;5.95;2.17;;;;;;;9.51;100.00;100680.66;5004786;28;20501;-75
2023/02/22 01:58:34;;;;;;;6.85;2.00;;;;;;;9.51;100.00;100689.47;4998183;28;20064;-75
2023/02/22 02:01:00;;;;;;;6.65;2.22;;;;;;;9.52;100.00;100679.81;4994086;28;20121;-75
2023/02/22 02:03:32;;;;;;;6.20;2.05;;;;;;;9.55;100.00;100683.31;4982736;28;20072;-75
2023/02/22 02:06:01;;;;;;;6.70;2.35;;;;;;;9.56;100.00;100674.56;5003342;28;20032;-75
2023/02/22 02:08:59;;;;;;;5.68;2.47;;;;;;;9.59;100.00;100677.19;5003206;28;20054;-75
2023/02/22 02:11:26;;;;;;;5.13;2.40;;;;;;;9.52;100.00;100674.53;4991892;28;20042;-75
2023/02/22 02:13:55;;;;;;;6.78;3.00;;;;;;;9.41;100.00;100675.41;5005443;28;20121;-75
2023/02/22 02:16:23;;;;;;;6.90;3.45;;;;;;;9.41;100.00;100674.53;5004744;28;20449;-75
2023/02/22 02:18:49;;;;;;;5.40;2.35;;;;;;;9.40;100.00;100670.13;4988246;28;20129;-75
2023/02/22 02:21:37;;;;;;;6.43;2.03;;;;;;;9.37;100.00;100675.41;5014432;28;20038;-75
2023/02/22 02:24:38;;;;;;;5.60;2.20;;;;;;;9.37;100.00;100667.50;5002361;28;20030;-75
2023/02/22 02:27:13;;;;;;;4.38;1.52;;;;;;;9.37;100.00;100667.50;4984687;28;20396;-75
2023/02/22 02:30:03;;;;;;;3.70;1.60;;;;;;;9.37;100.00;100670.13;5008019;28;20045;-75
2023/02/22 02:32:35;;;;;;;2.95;1.35;;;;;;;9.36;100.00;100668.38;4988171;28;20061;-75
2023/02/22 02:35:11;;;;;;;3.38;1.27;;;;;;;9.29;100.00;100664.84;5010264;28;20030;-75
2023/02/22 02:37:52;;;;;;;3.63;1.27;;;;;;;9.27;100.00;100666.59;4999667;28;20034;-75
2023/02/22 02:40:31;;;;;;;3.17;1.15;;;;;;;9.21;100.00;100661.31;5003876;28;20134;-75
2023/02/22 02:43:47;;;;;;;2.40;1.10;;;;;;;9.18;100.00;100662.19;5000561;28;20057;-75
2023/02/22 02:46:20;;;;;;;5.70;1.80;;;;;;;9.17;100.00;100668.34;4967873;28;20132;-75
2023/02/22 02:48:58;;;;;;;3.00;1.20;;;;;;;9.11;100.00;100670.09;5002120;28;20444;-75
2023/02/22 02:51:27;;;;;;;2.25;1.20;;;;;;;9.09;100.00;100662.19;5007981;28;20041;-75
2023/02/22 02:53:54;;;;;;;4.80;2.00;;;;;;;9.11;100.00;100668.31;5001794;28;20446;-74
2023/02/22 02:56:22;;;;;;;5.90;1.90;;;;;;;9.09;100.00;100670.09;5009221;28;20440;-75
2023/02/22 02:58:52;;;;;;;6.03;1.60;;;;;;;9.13;100.00;100666.56;4967630;28;20092;-75
2023/02/22 03:01:53;;;;;;;6.50;2.05;;;;;;;9.13;100.00;100666.56;5001316;28;20473;-75
2023/02/22 03:04:25;;;;;;;4.10;1.92;;;;;;;9.09;100.00;100671.81;5001298;28;20054;-75
2023/02/22 03:07:04;;;;;;;5.90;1.98;;;;;;;9.09;100.00;100659.56;5001438;28;20041;-75
2023/02/22 03:09:37;;;;;;;4.80;2.53;;;;;;;9.12;100.00;100666.59;4996118;28;20497;-75
2023/02/22 03:12:17;;;;;;;5.45;2.10;;;;;;;9.11;100.00;100660.44;4992239;28;20030;-75
2023/02/22 03:15:07;;;;;;;6.40;2.60;;;;;;;9.14;100.00;100660.47;5004220;28;20030;-75
2023/02/22 03:17:59;;;;;;;6.18;2.22;;;;;;;9.12;100.00;100661.31;5005669;28;20018;-75
2023/02/22 03:20:48;;;;;;;4.95;2.05;;;;;;;9.11;100.00;100659.56;5001973;28;20564;-75
2023/02/22 03:23:27;;;;;;;6.60;2.10;;;;;;;9.08;100.00;100664.81;5004352;28;20044;-75
2023/02/22 03:26:06;;;;;;;5.88;2.05;;;;;;;9.05;100.00;100654.28;4987095;28;20029;-75
2023/02/22 03:28:39;;;;;;;8.85;2.70;;;;;;;9.02;100.00;100660.41;4988515;28;20109;-75
2023/02/22 03:31:11;;;;;;;4.65;1.83;;;;;;;8.97;100.00;100656.91;5003620;28;20038;-75
2023/02/22 03:33:47;;;;;;;7.35;1.88;;;;;;;9.02;100.00;100657.78;5000776;28;20034;-75
2023/02/22 03:36:27;;;;;;;6.40;2.00;;;;;;;9.02;100.00;100659.56;4984867;28;20057;-75
2023/02/22 03:38:56;;;;;;;7.00;1.85;;;;;;;9.06;100.00;100662.16;4994363;28;20045;-75
2023/02/22 03:41:24;;;;;;;4.63;1.40;;;;;;;9.10;100.00;100658.69;4999619;28;20053;-75
2023/02/22 03:43:56;;;;;;;6.57;2.20;;;;;;;9.10;100.00;100653.41;4999490;28;20528;-75
2023/02/22 03:46:23;;;;;;;6.93;1.80;;;;;;;9.06;100.00;100653.41;4991165;28;20040;-75
2023/02/22 03:48:56;;;;;;;6.68;1.98;;;;;;;9.07;100.00;100658.69;4990636;28;20030;-75
2023/02/22 03:51:23;;;;;;;10.65;2.15;;;;;;;9.01;100.00;100656.00;4982853;28;20030;-75
2023/02/22 03:53:53;;;;;;;8.93;2.35;;;;;;;9.02;100.00;100655.16;4987398;28;20034;-75
2023/02/22 03:56:34;;;;;;;8.63;2.40;;;;;;;9.06;100.00;100656.91;4985947;28;20412;-75
2023/02/22 03:59:03;;;;;;;10.02;2.47;;;;;;;9.10;100.00;100657.81;5002232;28;20041;-75
2023/02/22 04:01:29;;;;;;;6.82;2.03;;;;;;;9.01;100.00;100653.38;4982520;28;20068;-75
2023/02/22 04:03:54;;;;;;;9.07;2.25;;;;;;;8.96;100.00;100657.75;5002115;28;20033;-75
2023/02/22 04:06:19;;;;;;;10.30;3.10;;;;;;;8.94;100.00;100655.13;4981901;28;20376;-75
2023/02/22 04:08:45;;;;;;;9.93;2.33;;;;;;;8.96;100.00;100655.13;4994080;28;20408;-75
2023/02/22 04:11:10;;;;;;;9.38;2.35;;;;;;;8.97;100.00;100652.50;4981545;28;20048;-75
2023/02/22 04:13:36;;;;;;;10.15;2.55;;;;;;;8.99;100.00;100642.00;5002039;28;20046;-75
2023/02/22 04:16:02;;;;;;;11.10;3.60;;;;;;;9.01;100.00;100642.84;4981117;28;20038;-75
2023/02/22 04:18:27;;;;;;;13.02;3.60;;;;;;;8.99;100.00;100644.63;5001645;28;20084;-75
2023/02/22 04:20:53;;;;;;;8.93;3.05;;;;;;;8.98;100.00;100643.72;5005547;28;20117;-75
2023/02/22 04:23:38;;;;;;;10.82;2.95;;;;;;;8.98;100.00;100645.47;5006626;28;20030;-77
2023/02/22 04:26:04;;;;;;;9.75;3.30;;;;;;;8.99;100.00;100644.63;4989105;28;20511;-75
2023/02/22 04:28:29;;;;;;;14.00;4.18;;;;;;;8.94;100.00;100643.72;4994566;28;20576;-74
2023/02/22 04:31:08;;;;;;;12.48;3.40;;;;;;;8.86;100.00;100637.56;4983296;28;20057;-75
2023/02/22 04:33:33;;;;;;;13.63;3.53;;;;;;;8.82;100.00;100630.53;5001308;28;20038;-74
2023/02/22 04:35:59;;;;;;;17.38;3.97;;;;;;;8.78;100.00;100645.44;5005181;28;20022;-75
2023/02/22 04:38:25;;;;;;;11.10;2.95;;;;;;;8.77;100.00;100644.53;5001105;28;20138;-75
2023/02/22 04:40:54;;;;;;;16.77;3.22;;;;;;;8.83;100.00;100638.44;4987585;28;20037;-75
2023/02/22 04:43:20;;;;;;;13.13;3.58;;;;;;;8.86;100.00;100637.56;4983785;28;20447;-75
2023/02/22 04:45:48;;;;;;;15.18;4.35;;;;;;;8.82;100.00;100631.41;4998977;28;20033;-75
2023/02/22 04:48:13;;;;;;;18.98;3.65;;;;;;;8.79;100.00;100634.03;4984146;28;20034;-75
2023/02/22 04:50:39;;;;;;;16.45;3.97;;;;;;;8.85;100.00;100635.81;4986338;28;20080;-75
2023/02/22 04:53:05;;;;;;;14.48;4.22;;;;;;;8.90;100.00;100627.03;5002347;28;20042;-75
2023/02/22 04:55:30;;;;;;;19.27;4.40;;;;;;;8.93;100.00;100628.81;5002956;28;20085;-75
2023/02/22 04:57:56;;;;;;;21.70;4.32;;;;;;;8.93;100.00;100628.81;4988238;28;20062;-75
2023/02/22 05:00:21;;;;;;;20.50;4.53;;;;;;;8.89;100.00;100634.94;4985709;28;20042;-75
2023/02/22 05:02:48;;;;;;;16.88;3.97;;;;;;;8.92;100.00;100632.31;4983820;28;20041;-75
2023/02/22 05:05:15;;;;;;;18.55;4.03;;;;;;;8.91;100.00;100636.72;5012248;28;20033;-75
2023/02/22 05:07:41;;;;;;;14.20;4.10;;;;;;;8.87;100.00;100631.44;4999193;28;20173;-75
2023/02/22 05:10:06;;;;;;;17.80;3.95;;;;;;;8.88;100.00;100623.56;5006164;28;20113;-75
2023/02/22 05:12:32;;;;;;;14.40;4.53;;;;;;;8.87;100.00;100629.66;5002088;28;20083;-74
2023/02/22 05:14:57;;;;;;;12.40;3.55;;;;;;;8.89;100.00;100621.78;5003734;28;20570;-76
2023/02/22 05:17:22;;;;;;;17.80;4.07;;;;;;;8.86;100.00;100627.94;5005100;28;20073;-75
2023/02/22 05:19:48;;;;;;;14.30;3.83;;;;;;;8.86;100.00;100625.28;5009237;28;20058;-75
2023/02/22 05:22:13;;;;;;;11.52;3.75;;;;;;;8.90;100.00;100624.41;4992734;28;20042;-75
2023/02/22 05:24:39;;;;;;;11.98;4.20;;;;;;;8.95;100.00;100624.41;5012866;28;20040;-75
2023/02/22 05:27:04;;;;;;;17.98;5.10;;;;;;;8.84;100.00;100620.91;5002353;28;20030;-75
2023/02/22 05:29:29;;;;;;;16.85;4.07;;;;;;;8.78;100.00;100620.00;5012989;28;20034;-75
2023/02/22 05:31:57;;;;;;;13.77;4.25;;;;;;;8.79;100.00;100620.88;5004520;28;20144;-75
2023/02/22 05:34:22;;;;;;;15.52;4.63;;;;;;;8.81;100.00;100620.91;5007113;28;20041;-75
2023/02/22 05:36:48;;;;;;;18.23;5.97;;;;;;;8.80;100.00;100614.72;5011046;28;20030;-75
2023/02/22 05:39:13;;;;;;;19.52;5.60;;;;;;;8.78;100.00;100625.28;5006809;28;20034;-75
2023/02/22 05:41:38;;;;;;;15.68;4.70;;;;;;;8.78;100.00;100627.03;5006731;28;20038;-75
2023/02/22 05:44:04;;;;;;;15.23;4.47;;;;;;;8.78;100.00;100625.28;5005290;28;20045;-75
2023/02/22 05:46:29;;;;;;;14.60;5.63;;;;;;;8.83;100.00;100635.81;5007872;28;20066;-75
2023/02/22 05:48:54;;;;;;;16.55;6.28;;;;;;;8.76;100.00;100632.28;5006869;28;20041;-75
2023/02/22 05:51:20;;;;;;;15.55;5.97;;;;;;;8.75;100.00;100633.16;5005463;28;20044;-75
2023/02/22 05:53:45;;;;;;;19.00;5.05;;;;;;;8.68;100.00;100631.38;5005649;28;20113;-75
2023/02/22 05:56:10;;;;;;;12.93;2.88;;;;;;;8.59;100.00;100647.13;5009620;28;20450;-75
2023/02/22 05:58:36;;;;;;;15.70;3.45;;;;;;;8.65;100.00;100643.66;5004536;28;20427;-75
2023/02/22 06:01:01;;;;;;;22.45;5.22;;;;;;;8.66;100.00;100634.88;5013156;28;20088;-76
2023/02/22 06:03:26;;;;;;;18.75;5.82;;;;;;;8.61;100.00;100639.25;5009571;28;20049;-76
2023/02/22 06:05:52;;;;;;;17.15;5.45;;;;;;;8.63;100.00;100641.00;5008605;28;20041;-76
2023/02/22 06:08:17;;;;;;;20.50;6.50;;;;;;;8.72;100.00;100637.50;5004299;28;20030;-76
2023/02/22 06:10:43;;;;;;;14.13;6.40;;;;;;;8.78;100.00;100643.69;5007075;28;20041;-75
2023/02/22 06:13:08;;;;;;;17.70;7.05;;;;;;;8.77;100.00;100651.56;5010883;28;20061;-75
2023/02/22 06:15:34;;;;;;;19.23;9.52;;;;;;;8.52;100.00;100640.97;5001780;28;20049;-75
2023/02/22 06:18:00;;;;;;;29.10;11.07;;;;;;;8.28;100.00;100644.34;5002264;28;20049;-76
2023/02/22 06:20:27;;;;;;;17.75;9.40;;;;;;;8.30;100.00;100653.09;5004040;28;20034;-75
2023/02/22 06:22:55;;;;;;;25.05;11.98;;;;;;;8.35;100.00;100648.72;5002976;28;20038;-75
2023/02/22 06:25:23;;;;;;;29.23;13.55;;;;;;;8.48;100.00;100652.34;5008447;28;20065;-75
2023/02/22 06:27:49;;;;;;;21.73;10.45;;;;;;;8.44;100.00;100649.72;5010080;28;20040;-75
2023/02/22 06:30:16;;;;;;;25.60;10.32;;;;;;;8.46;100.00;100650.56;5001511;28;20038;-75
2023/02/22 06:32:41;;;;;;;22.92;10.00;;;;;;;8.51;100.00;100656.72;5005643;28;20433;-75
2023/02/22 06:35:07;;;;;;;20.02;6.53;;;;;;;8.55;100.00;100653.25;5001566;28;20049;-75
2023/02/22 06:37:33;;;;;;;18.80;7.28;;;;;;;8.65;100.00;100651.56;5004544;28;20407;-75
2023/02/22 06:39:58;;;;;;;16.60;7.15;;;;;;;8.70;100.00;100649.81;5001214;28;20042;-75
2023/02/22 06:42:24;;;;;;;20.35;7.55;;;;;;;8.75;100.00;100646.31;5003052;28;20042;-75
2023/02/22 06:44:49;;;;;;;23.17;10.27;;;;;;;8.80;100.00;100656.84;5004742;28;20038;-75
2023/02/22 06:47:14;;;;;;;18.60;8.25;;;;;;;8.85;100.00;100664.75;5005530;28;20121;-75
2023/02/22 06:49:40;;;;;;;21.02;7.43;;;;;;;8.90;100.00;100665.66;5002208;28;20034;-76
2023/02/22 06:52:07;;;;;;;17.60;7.22;;;;;;;8.93;100.00;100661.28;5005357;28;20034;-75
2023/02/22 06:54:32;;;;;;;25.70;9.05;;;;;;;8.98;100.00;100662.16;5008028;28;20045;-75
2023/02/22 06:56:58;;;;;;;30.67;9.55;;;;;;;9.02;100.00;100665.69;4993476;28;20034;-75
2023/02/22 06:59:23;;;;;;;22.52;9.00;;;;;;;9.02;100.00;100670.09;5002281;28;20050;-78
2023/02/22 07:01:48;;;;;;;16.75;6.50;;;;;;;9.03;100.00;100671.81;5007802;28;20057;-76
2023/02/22 07:04:14;;;;;;;19.90;7.28;;;;;;;8.92;100.00;100677.06;5005857;28;20039;-76
2023/02/22 07:06:45;;;;;;;13.95;5.65;;;;;;;8.88;100.00;100673.56;5002758;28;20044;-76
2023/02/22 07:09:11;;;;;;;16.10;6.43;;;;;;;8.91;100.00;100670.06;5004472;28;20061;-76
2023/02/22 07:11:38;;;;;;;18.95;7.63;;;;;;;8.85;100.00;100678.78;5000603;28;20508;-76
2023/02/22 07:14:03;;;;;;;19.35;6.63;;;;;;;8.69;100.00;100677.84;5005256;28;20079;-76
2023/02/22 07:16:29;;;;;;;23.35;7.63;;;;;;;8.75;100.00;100675.25;5007154;28;20823;-76
2023/02/22 07:18:54;;;;;;;19.73;6.68;;;;;;;8.83;100.00;100679.66;5004278;28;20133;-76
2023/02/22 07:21:19;;;;;;;18.65;6.65;;;;;;;8.81;100.00;100686.69;5007245;28;20408;-76
2023/02/22 07:23:57;;;;;;;17.65;6.47;;;;;;;8.79;100.00;100686.66;5015648;28;20492;-75
2023/02/22 07:26:30;;;;;;;25.38;8.32;;;;;;;8.90;100.00;100686.69;5007408;28;20044;-76
2023/02/22 07:29:41;;;;;;;27.23;9.82;;;;;;;8.98;100.00;100682.34;5005283;28;20462;-75
2023/02/22 07:31:58;;;;;;;17.38;7.60;;;;;;;9.09;100.00;100683.25;5001162;28;20046;-75
2023/02/22 07:34:30;;;;;;;22.80;9.45;;;;;;;9.09;100.00;100678.00;4985914;28;20108;-76
2023/02/22 07:36:55;;;;;;;22.55;8.07;;;;;;;9.04;100.00;100690.28;5006918;28;20033;-76
2023/02/22 07:39:21;;;;;;;22.67;7.30;;;;;;;9.10;100.00;100679.75;4999266;28;20049;-76
2023/02/22 07:41:49;;;;;;;23.30;8.13;;;;;;;9.12;100.00;100680.63;4983979;28;20046;-76
2023/02/22 07:44:21;;;;;;;17.98;7.07;;;;;;;9.12;100.00;100682.41;4985522;28;20026;-76
2023/02/22 07:46:48;;;;;;;22.98;8.43;;;;;;;9.14;100.00;100685.88;5003342;28;20025;-76
2023/02/22 07:49:13;;;;;;;28.55;12.00;;;;;;;9.19;100.00;100685.00;5008812;28;20030;-76
2023/02/22 07:51:39;;;;;;;40.08;13.77;;;;;;;9.33;100.00;100685.06;4995231;28;20041;-76
2023/02/22 07:54:04;;;;;;;34.80;14.45;;;;;;;9.48;100.00;100685.94;5005012;28;20042;-76
2023/02/22 07:56:29;;;;;;;25.45;10.25;;;;;;;9.55;100.00;100688.56;5007597;28;20050;-76
2023/02/22 07:58:55;;;;;;;19.17;8.18;;;;;;;9.59;100.00;100679.81;5005515;28;20452;-76
2023/02/22 08:01:20;;;;;;;25.17;9.43;;;;;;;9.56;100.00;100687.72;5006618;28;20508;-76
2023/02/22 08:03:46;;;;;;;35.42;12.75;;;;;;;9.62;100.00;100685.06;5001544;28;20038;-76
2023/02/22 08:06:12;;;;;;;38.65;12.75;;;;;;;9.78;100.00;100677.16;5002199;28;20117;-76
2023/02/22 08:08:37;;;;;;;22.15;9.90;;;;;;;9.87;100.00;100685.06;5004543;28;20140;-76
2023/02/22 08:11:03;;;;;;;17.48;7.63;;;;;;;9.85;100.00;100676.25;5002543;28;20041;-77
2023/02/22 08:13:29;;;;;;;20.33;8.65;;;;;;;9.87;100.00;100679.78;4995980;28;20068;-75
2023/02/22 08:15:55;;;;;;;23.58;9.40;;;;;;;9.89;100.00;100678.03;5000881;28;20058;-76
2023/02/22 08:18:21;;;;;;;18.33;7.18;;;;;;;9.82;100.00;100678.91;5004628;28;20029;-76
2023/02/22 08:20:49;;;;;;;30.75;10.10;;;;;;;9.89;100.00;100675.41;5009227;28;20080;-76
2023/02/22 08:23:15;;;;;;;19.27;8.40;;;;;;;9.95;100.00;100682.41;5002691;28;20125;-76
2023/02/22 08:25:41;;;;;;;19.17;6.90;;;;;;;9.93;100.00;100682.44;5006459;28;20042;-76
2023/02/22 08:28:09;;;;;;;18.65;7.43;;;;;;;9.80;100.00;100676.28;4996492;28;20034;-76
2023/02/22 08:30:36;;;;;;;17.58;5.55;;;;;;;9.75;100.00;100679.81;4998467;28;20556;-76
2023/02/22 08:33:03;;;;;;;17.10;6.90;;;;;;;9.91;100.00;100673.66;5003170;28;20207;-76
2023/02/22 08:35:31;;;;;;;13.70;5.90;;;;;;;10.03;100.00;100671.00;5003146;28;20460;-75
2023/02/22 08:38:00;;;;;;;21.42;7.97;;;;;;;10.16;100.00;100670.94;5004713;28;20495;-76
2023/02/22 08:40:28;;;;;;;17.00;6.32;;;;;;;10.26;100.00;100670.06;4970414;28;20045;-76
2023/02/22 08:42:54;;;;;;;18.83;7.80;;;;;;;10.34;100.00;100665.66;5010748;28;20042;-76
2023/02/22 08:45:19;;;;;;;14.88;5.65;;;;;;;10.37;100.00;100670.94;5004866;28;20115;-76
2023/02/22 08:47:45;;;;;;;17.00;5.72;;;;;;;10.48;100.00;100666.50;5005178;28;20501;-76
2023/02/22 08:50:37;;;;;;;15.07;5.70;;;;;;;10.55;100.00;100671.75;5005513;28;20038;-76
2023/02/22 08:53:04;;;;;;;14.68;6.20;;;;;;;10.62;100.00;100673.50;4984337;28;20164;-76
2023/02/22 08:55:34;;;;;;;15.05;5.47;;;;;;;10.62;100.00;100681.41;5003643;28;20088;-76
2023/02/22 08:58:01;;;;;;;15.20;5.22;;;;;;;10.56;100.00;100669.13;4989336;28;20034;-76
2023/02/22 09:00:31;;;;;;;16.23;5.65;;;;;;;10.59;100.00;100670.88;5010474;28;20038;-76
2023/02/22 09:03:04;;;;;;;15.27;5.65;;;;;;;10.65;100.00;100665.56;5006087;28;20088;-76
2023/02/22 09:05:31;;;;;;;14.45;5.60;;;;;;;10.76;100.00;100663.75;5004515;28;20030;-76
2023/02/22 09:07:56;;;;;;;15.48;5.68;;;;;;;10.85;100.00;100668.13;5002303;28;20085;-76
2023/02/22 09:10:25;;;;;;;18.17;6.05;;;;;;;10.87;100.00;100664.59;5011312;28;20501;-76
2023/02/22 09:12:54;;;;;;;12.32;4.85;;;;;;;11.01;100.00;100658.34;5005146;28;20038;-76
2023/02/22 09:15:20;;;;;;;16.00;5.50;;;;;;;11.09;100.00;100657.41;4994624;28;20038;-76
2023/02/22 09:17:45;;;;;;;14.40;5.93;;;;;;;11.10;100.00;100651.22;5005462;28;20029;-76
2023/02/22 09:20:11;;;;;;;17.05;6.35;;;;;;;11.14;100.00;100654.75;5007336;28;20757;-76
2023/02/22 09:22:37;;;;;;;14.30;6.60;;;;;;;11.33;100.00;100653.72;5005441;28;20022;-76
2023/02/22 09:25:03;;;;;;;20.08;7.05;;;;;;;11.54;100.00;100657.09;5002906;28;20113;-76
2023/02/22 09:27:29;;;;;;;17.75;8.00;;;;;;;11.70;100.00;100652.53;5001434;28;20133;-76
2023/02/22 09:29:55;;;;;;;21.45;7.40;;;;;;;11.71;100.00;100649.91;5007658;28;20447;-76
2023/02/22 09:32:21;;;;;;;19.98;7.95;;;;;;;11.78;100.00;100653.34;5012639;28;20041;-76
2023/02/22 09:34:46;;;;;;;19.55;6.70;;;;;;;11.87;100.00;100657.69;5013378;28;20030;-76
2023/02/22 09:37:12;;;;;;;22.35;9.40;;;;;;;11.95;100.00;100655.88;5007416;28;20500;-76
2023/02/22 09:39:38;;;;;;;20.08;7.70;;;;;;;12.02;100.00;100653.13;5010433;28;20073;-76
2023/02/22 09:42:48;;;;;;;18.77;7.32;;;;;;;12.11;100.00;100654.84;5014480;28;20034;-76
2023/02/22 09:45:21;;;;;;;16.08;6.70;;;;;;;12.20;100.00;100651.19;4942498;28;20048;-75
2023/02/22 09:47:57;;;;;;;19.60;8.52;;;;;;;12.13;99.67;100650.41;5002710;28;20470;-76
2023/02/22 09:50:34;;;;;;;20.65;9.30;;;;;;;12.15;100.00;100648.59;5012510;28;20034;-76
2023/02/22 09:53:11;;;;;;;18.55;7.68;;;;;;;12.24;99.90;100645.88;5005805;28;20551;-76
2023/02/22 09:55:38;;;;;;;18.77;8.32;;;;;;;12.33;99.91;100646.66;5005264;28;20034;-76
2023/02/22 09:58:24;;;;;;;17.55;7.05;;;;;;;12.25;96.98;100637.03;5012047;28;20752;-76
2023/02/22 10:01:00;;;;;;;14.77;7.25;;;;;;;12.15;98.67;100635.38;5011126;28;20041;-76
2023/02/22 10:03:33;;;;;;;18.77;5.80;;;;;;;11.90;100.00;100645.34;5002978;28;20030;-76
2023/02/22 10:06:13;;;;;;;19.75;6.13;;;;;;;11.95;100.00;100634.72;5002323;28;20034;-76
2023/02/22 10:08:40;;;;;;;15.82;7.38;;;;;;;12.18;100.00;100637.09;4998393;28;20038;-76
2023/02/22 10:11:43;;;;;;;18.58;8.73;;;;;;;12.46;100.00;100627.06;5008011;28;20030;-76
2023/02/22 10:14:14;;;;;;;18.35;8.43;;;;;;;12.64;99.51;100629.50;4994347;28;20623;-76
2023/02/22 10:17:07;;;;;;;17.63;7.17;;;;;;;12.78;97.74;100623.13;4983910;28;20041;-76
2023/02/22 10:19:41;;;;;;;17.95;12.18;;;;;;;12.75;96.25;100623.19;5004983;28;20076;-76
2023/02/22 10:22:22;;;;;;;17.55;12.63;;;;;;;12.59;97.50;100623.38;5013156;28;20045;-76
2023/02/22 10:25:11;;;;;;;21.13;12.10;;;;;;;12.69;96.53;100624.16;5003696;28;20037;-76
2023/02/22 10:27:57;;;;;;;17.33;11.85;;;;;;;12.66;95.33;100630.34;5005900;28;20041;-76
2023/02/22 10:30:31;;;;;;;21.65;15.80;;;;;;;12.75;97.05;100618.75;5004119;28;20045;-76
2023/02/22 10:33:15;;;;;;;20.58;14.57;;;;;;;12.86;96.52;100618.59;5002894;28;20045;-76
2023/02/22 10:35:43;;;;;;;22.42;14.15;;;;;;;12.96;95.94;100612.28;5001975;28;20401;-76
2023/02/22 10:38:38;;;;;;;20.58;13.93;;;;;;;13.08;96.16;100616.53;5003865;28;20042;-76
2023/02/22 10:41:09;;;;;;;18.63;15.48;;;;;;;13.15;95.88;100613.78;4988599;28;20561;-76
2023/02/22 10:43:40;;;;;;;31.55;19.98;;;;;;;13.27;94.88;100611.84;4986348;28;20045;-76
2023/02/22 10:46:08;;;;;;;20.60;16.27;;;;;;;13.34;94.09;100609.06;5006257;28;20040;-76
2023/02/22 10:48:37;;;;;;;20.50;15.77;;;;;;;13.41;93.42;100608.97;5001282;28;20517;-76
2023/02/22 10:51:05;;;;;;;18.25;15.10;;;;;;;13.47;93.70;100608.88;5005025;28;20026;-76
2023/02/22 10:53:31;;;;;;;21.95;14.05;;;;;;;13.57;92.74;100603.41;5001814;28;20034;-76
2023/02/22 10:56:23;;;;;;;17.10;11.90;;;;;;;13.58;91.93;100607.78;5004411;28;20507;-76
2023/02/22 10:59:01;;;;;;;18.60;12.05;;;;;;;13.69;92.21;100604.06;5001695;28;20650;-77
2023/02/22 11:01:39;;;;;;;18.83;12.95;;;;;;;13.84;91.74;100602.94;5005726;28;20045;-76
2023/02/22 11:04:17;;;;;;;20.23;13.38;;;;;;;13.86;90.79;100602.00;5004105;28;20072;-77
2023/02/22 11:06:47;;;;;;;17.23;12.73;;;;;;;13.96;91.17;100600.03;5007216;28;20025;-77
2023/02/22 11:09:22;;;;;;;16.92;13.60;;;;;;;14.02;90.70;100599.94;4996019;28;20092;-77
2023/02/22 11:11:49;;;;;;;17.83;12.85;;;;;;;14.01;90.22;100595.50;4989002;28;20033;-77
2023/02/22 11:14:26;;;;;;;23.00;15.07;;;;;;;13.92;89.57;100593.03;5001233;28;20576;-77
2023/02/22 11:16:55;;;;;;;16.08;12.15;;;;;;;14.06;90.98;100590.13;5001359;28;20034;-77
2023/02/22 11:19:26;;;;;;;18.20;12.70;;;;;;;14.13;89.27;100583.78;5003602;28;20060;-76
2023/02/22 11:21:58;;;;;;;22.65;15.27;;;;;;;14.02;88.86;100590.19;5008940;28;20045;-77
2023/02/22 11:24:25;;;;;;;21.48;14.13;;;;;;;14.16;91.00;100589.03;4997358;28;20072;-77
2023/02/22 11:26:58;;;;;;;18.58;14.50;;;;;;;14.32;90.17;100574.53;5005860;28;20719;-77
2023/02/22 11:29:31;;;;;;;17.42;14.40;;;;;;;14.36;89.25;100588.66;5004016;28;20038;-77